createdAt,value
2023-02-15T00:00:02.602Z,89.56
2023-02-15T00:01:02.586Z,89.56
2023-02-15T00:02:02.588Z,89.61
2023-02-15T00:03:02.606Z,89.67
2023-02-15T00:04:02.533Z,89.67
2023-02-15T00:05:02.527Z,89.56
2023-02-15T00:06:02.796Z,89.50
2023-02-15T00:07:02.544Z,89.50
2023-02-15T00:08:02.537Z,89.61
2023-02-15T00:09:02.498Z,89.61
2023-02-15T00:10:02.441Z,89.71
2023-02-15T00:11:02.486Z,89.81
2023-02-15T00:12:02.425Z,89.77
2023-02-15T00:13:02.432Z,89.71
2023-02-15T00:14:02.393Z,89.71
2023-02-15T00:15:02.429Z,89.81
2023-02-15T00:16:02.738Z,89.81
2023-02-15T00:17:02.408Z,89.81
2023-02-15T00:18:02.395Z,89.92
2023-02-15T00:19:02.380Z,89.81
2023-02-15T00:20:02.360Z,89.81
2023-02-15T00:21:02.340Z,89.92
2023-02-15T00:22:02.319Z,89.92
2023-02-15T00:23:02.338Z,90.02
2023-02-15T00:24:02.297Z,89.92
2023-02-15T00:25:02.270Z,89.81
2023-02-15T00:26:02.448Z,89.92
2023-02-15T00:27:02.284Z,89.81
2023-02-15T00:28:02.266Z,89.81
2023-02-15T00:29:02.221Z,89.81
2023-02-15T00:30:02.257Z,89.92
2023-02-15T00:31:02.287Z,89.92
2023-02-15T00:32:02.170Z,89.81
2023-02-15T00:33:02.188Z,89.81
2023-02-15T00:34:02.159Z,89.81
2023-02-15T00:35:02.165Z,89.81
2023-02-15T00:36:02.421Z,89.71
2023-02-15T00:37:02.150Z,89.71
2023-02-15T00:38:02.129Z,89.71
2023-02-15T00:39:02.100Z,89.71
2023-02-15T00:40:02.114Z,89.81
2023-02-15T00:41:02.092Z,89.81
2023-02-15T00:42:02.074Z,89.92
2023-02-15T00:43:02.048Z,90.12
2023-02-15T00:44:02.027Z,90.12
2023-02-15T00:45:02.023Z,90.23
2023-02-15T00:46:02.385Z,90.27
2023-02-15T00:47:02.024Z,90.37
2023-02-15T00:48:02.011Z,90.27
2023-02-15T00:49:01.973Z,90.17
2023-02-15T00:50:02.014Z,90.17
2023-02-15T00:51:01.972Z,90.27
2023-02-15T00:52:01.916Z,90.27
2023-02-15T00:53:01.941Z,90.37
2023-02-15T00:54:01.936Z,90.37
2023-02-15T00:55:01.885Z,90.27
2023-02-15T00:56:02.212Z,90.37
2023-02-15T00:57:01.898Z,90.48
2023-02-15T00:58:01.884Z,90.58
2023-02-15T00:59:01.889Z,90.58
2023-02-15T01:00:01.812Z,90.48
2023-02-15T01:01:01.857Z,90.58
2023-02-15T01:02:01.821Z,90.48
2023-02-15T01:03:01.785Z,90.58
2023-02-15T01:04:01.773Z,90.69
2023-02-15T01:05:01.763Z,90.69
2023-02-15T01:06:02.121Z,90.48
2023-02-15T01:07:01.759Z,90.48
2023-02-15T01:08:01.739Z,90.48
2023-02-15T01:09:01.740Z,90.48
2023-02-15T01:10:01.733Z,90.69
2023-02-15T01:11:01.709Z,90.58
2023-02-15T01:12:01.666Z,90.48
2023-02-15T01:13:01.664Z,90.48
2023-02-15T01:14:01.651Z,90.48
2023-02-15T01:15:01.645Z,90.48
2023-02-15T01:16:02.048Z,90.48
2023-02-15T01:17:01.613Z,90.58
2023-02-15T01:18:01.583Z,90.58
2023-02-15T01:19:01.628Z,90.58
2023-02-15T01:20:01.556Z,90.69
2023-02-15T01:21:01.563Z,90.69
2023-02-15T01:22:01.545Z,90.69
2023-02-15T01:23:01.532Z,90.83
2023-02-15T01:24:01.547Z,90.83
2023-02-15T01:25:01.505Z,90.93
2023-02-15T01:26:01.924Z,90.93
2023-02-15T01:27:01.491Z,90.83
2023-02-15T01:28:01.455Z,90.93
2023-02-15T01:29:01.500Z,90.93
2023-02-15T01:30:01.455Z,90.93
2023-02-15T01:31:01.534Z,90.93
2023-02-15T01:32:01.538Z,90.83
2023-02-15T01:33:01.474Z,90.83
2023-02-15T01:34:01.401Z,90.72
2023-02-15T01:35:01.397Z,90.72
2023-02-15T01:36:01.765Z,90.72
2023-02-15T01:37:01.377Z,90.72
2023-02-15T01:38:01.329Z,90.72
2023-02-15T01:39:01.324Z,90.72
2023-02-15T01:40:01.336Z,90.62
2023-02-15T01:41:01.309Z,90.52
2023-02-15T01:42:01.272Z,90.41
2023-02-15T01:43:01.305Z,90.41
2023-02-15T01:44:01.258Z,90.41
2023-02-15T01:45:01.295Z,90.62
2023-02-15T01:46:01.612Z,90.72
2023-02-15T01:47:01.253Z,90.83
2023-02-15T01:48:01.247Z,90.83
2023-02-15T01:49:01.201Z,90.93
2023-02-15T01:50:01.218Z,91.03
2023-02-15T01:51:01.569Z,91.03
2023-02-15T01:52:01.144Z,91.14
2023-02-15T01:53:01.151Z,91.14
2023-02-15T01:54:01.127Z,91.24
2023-02-15T01:55:01.167Z,91.35
2023-02-15T01:56:01.439Z,91.35
2023-02-15T01:57:01.104Z,91.35
2023-02-15T01:58:01.088Z,91.35
2023-02-15T01:59:01.092Z,91.35
2023-02-15T02:00:01.098Z,91.35
2023-02-15T02:01:01.419Z,91.24
2023-02-15T02:02:01.053Z,91.24
2023-02-15T02:03:01.099Z,91.24
2023-02-15T02:04:00.990Z,91.14
2023-02-15T02:05:01.059Z,91.14
2023-02-15T02:06:01.320Z,91.14
2023-02-15T02:07:00.970Z,91.14
2023-02-15T02:08:00.990Z,91.14
2023-02-15T02:09:00.945Z,91.14
2023-02-15T02:10:00.956Z,91.14
2023-02-15T02:11:00.912Z,91.14
2023-02-15T02:12:00.918Z,91.03
2023-02-15T02:13:00.914Z,91.08
2023-02-15T02:14:00.878Z,91.18
2023-02-15T02:15:00.901Z,91.18
2023-02-15T02:16:01.200Z,91.28
2023-02-15T02:17:00.834Z,91.28
2023-02-15T02:18:00.836Z,91.28
2023-02-15T02:19:00.858Z,91.28
2023-02-15T02:20:00.821Z,91.39
2023-02-15T02:21:00.805Z,91.28
2023-02-15T02:22:00.757Z,91.39
2023-02-15T02:23:00.789Z,91.39
2023-02-15T02:24:00.771Z,91.39
2023-02-15T02:25:00.736Z,91.49
2023-02-15T02:26:01.158Z,91.39
2023-02-15T02:27:00.732Z,91.39
2023-02-15T02:28:00.711Z,91.28
2023-02-15T02:29:00.716Z,91.39
2023-02-15T02:30:00.752Z,91.28
2023-02-15T02:31:00.827Z,91.39
2023-02-15T02:32:00.660Z,91.39
2023-02-15T02:33:00.656Z,91.39
2023-02-15T02:34:00.630Z,91.39
2023-02-15T02:35:00.606Z,91.28
2023-02-15T02:36:00.911Z,91.28
2023-02-15T02:37:00.599Z,91.18
2023-02-15T02:38:00.579Z,91.28
2023-02-15T02:39:00.551Z,91.28
2023-02-15T02:40:00.532Z,91.39
2023-02-15T02:41:00.550Z,91.39
2023-02-15T02:42:00.528Z,91.39
2023-02-15T02:43:00.531Z,91.53
2023-02-15T02:44:00.483Z,91.49
2023-02-15T02:45:00.510Z,91.53
2023-02-15T02:46:00.855Z,91.53
2023-02-15T02:47:00.493Z,91.53
2023-02-15T02:48:00.435Z,91.64
2023-02-15T02:49:00.460Z,91.64
2023-02-15T02:50:00.450Z,91.64
2023-02-15T02:51:00.446Z,91.74
2023-02-15T02:52:00.403Z,91.85
2023-02-15T02:53:00.401Z,91.85
2023-02-15T02:54:00.359Z,91.85
2023-02-15T02:55:00.359Z,91.85
2023-02-15T02:56:00.828Z,91.74
2023-02-15T02:57:00.334Z,91.74
2023-02-15T02:58:00.310Z,91.74
2023-02-15T02:59:00.333Z,91.64
2023-02-15T03:00:00.308Z,91.64
2023-02-15T03:01:00.335Z,91.64
2023-02-15T03:02:00.369Z,91.64
2023-02-15T03:03:00.330Z,91.64
2023-02-15T03:04:00.234Z,91.64
2023-02-15T03:05:00.273Z,91.64
2023-02-15T03:06:00.486Z,91.74
2023-02-15T03:07:00.247Z,91.74
2023-02-15T03:08:00.178Z,91.85
2023-02-15T03:09:00.203Z,91.85
2023-02-15T03:10:00.171Z,91.74
2023-02-15T03:11:00.173Z,91.74
2023-02-15T03:12:00.161Z,91.74
2023-02-15T03:13:00.155Z,91.95
2023-02-15T03:14:00.138Z,92.05
2023-02-15T03:15:00.144Z,92.05
2023-02-15T03:16:00.501Z,92.05
2023-02-15T03:17:00.110Z,92.05
2023-02-15T03:18:00.119Z,92.05
2023-02-15T03:19:00.078Z,92.05
2023-02-15T03:20:00.028Z,92.05
2023-02-15T03:21:00.082Z,92.05
2023-02-15T03:21:59.998Z,92.05
2023-02-15T03:23:00.057Z,92.05
2023-02-15T03:24:00.005Z,91.95
2023-02-15T03:25:00.011Z,91.95
2023-02-15T03:26:00.292Z,91.99
2023-02-15T03:26:59.983Z,91.99
2023-02-15T03:27:59.937Z,92.10
2023-02-15T03:28:59.935Z,92.20
2023-02-15T03:29:59.935Z,92.30
2023-02-15T03:31:00.040Z,92.30
2023-02-15T03:32:00.035Z,92.30
2023-02-15T03:32:59.915Z,92.30
2023-02-15T03:33:59.856Z,92.30
2023-02-15T03:34:59.856Z,92.30
2023-02-15T03:36:00.411Z,92.30
2023-02-15T03:36:59.854Z,92.20
2023-02-15T03:37:59.808Z,92.20
2023-02-15T03:38:59.826Z,92.20
2023-02-15T03:39:59.789Z,92.20
2023-02-15T03:40:59.889Z,92.30
2023-02-15T03:42:00.704Z,92.30
2023-02-15T03:42:59.758Z,92.41
2023-02-15T03:43:59.720Z,92.41
2023-02-15T03:44:59.773Z,92.30
2023-02-15T03:46:00.082Z,92.30
2023-02-15T03:46:59.797Z,92.41
2023-02-15T03:47:59.708Z,92.41
2023-02-15T03:48:59.672Z,92.41
2023-02-15T03:49:59.663Z,92.30
2023-02-15T03:50:59.640Z,92.30
2023-02-15T03:51:59.661Z,92.30
2023-02-15T03:52:59.632Z,92.41
2023-02-15T03:53:59.637Z,92.30
2023-02-15T03:54:59.580Z,92.30
2023-02-15T03:55:59.898Z,92.20
2023-02-15T03:56:59.601Z,92.20
2023-02-15T03:57:59.558Z,92.30
2023-02-15T03:58:59.529Z,92.20
2023-02-15T03:59:59.540Z,92.20
2023-02-15T04:00:59.557Z,92.20
2023-02-15T04:01:59.547Z,92.20
2023-02-15T04:02:59.560Z,92.20
2023-02-15T04:03:59.480Z,92.20
2023-02-15T04:04:59.485Z,92.10
2023-02-15T04:05:59.689Z,92.10
2023-02-15T04:06:59.433Z,91.99
2023-02-15T04:07:59.475Z,91.99
2023-02-15T04:08:59.434Z,92.10
2023-02-15T04:09:59.415Z,92.10
2023-02-15T04:10:59.385Z,92.10
2023-02-15T04:11:59.378Z,92.14
2023-02-15T04:12:59.369Z,92.24
2023-02-15T04:13:59.385Z,92.24
2023-02-15T04:14:59.357Z,92.24
2023-02-15T04:15:59.543Z,92.35
2023-02-15T04:16:59.324Z,92.24
2023-02-15T04:17:59.326Z,92.35
2023-02-15T04:18:59.288Z,92.45
2023-02-15T04:19:59.307Z,92.45
2023-02-15T04:20:59.289Z,92.55
2023-02-15T04:21:59.261Z,92.55
2023-02-15T04:22:59.242Z,92.66
2023-02-15T04:23:59.259Z,92.55
2023-02-15T04:24:59.231Z,92.66
2023-02-15T04:25:59.447Z,92.66
2023-02-15T04:26:59.217Z,92.66
2023-02-15T04:27:59.186Z,92.66
2023-02-15T04:28:59.168Z,92.55
2023-02-15T04:29:59.242Z,92.55
2023-02-15T04:30:59.151Z,92.55
2023-02-15T04:31:59.221Z,92.45
2023-02-15T04:32:59.109Z,92.45
2023-02-15T04:33:59.144Z,92.45
2023-02-15T04:34:59.113Z,92.45
2023-02-15T04:35:59.343Z,92.55
2023-02-15T04:36:59.052Z,92.70
2023-02-15T04:37:59.082Z,92.76
2023-02-15T04:38:59.051Z,92.86
2023-02-15T04:39:59.028Z,92.86
2023-02-15T04:40:58.993Z,92.86
2023-02-15T04:41:59.033Z,92.86
2023-02-15T04:42:59.008Z,92.86
2023-02-15T04:43:58.982Z,92.86
2023-02-15T04:44:58.968Z,92.86
2023-02-15T04:45:59.005Z,92.91
2023-02-15T04:46:58.923Z,92.91
2023-02-15T04:47:58.941Z,93.01
2023-02-15T04:48:58.910Z,93.01
2023-02-15T04:49:58.930Z,93.01
2023-02-15T04:50:58.898Z,93.01
2023-02-15T04:51:58.873Z,93.12
2023-02-15T04:52:58.866Z,93.12
2023-02-15T04:53:58.859Z,93.23
2023-02-15T04:54:58.821Z,93.23
2023-02-15T04:55:58.819Z,93.23
2023-02-15T04:56:58.795Z,93.23
2023-02-15T04:57:58.804Z,93.23
2023-02-15T04:58:58.816Z,93.33
2023-02-15T04:59:58.795Z,93.33
2023-02-15T05:00:58.793Z,93.23
2023-02-15T05:01:58.767Z,93.33
2023-02-15T05:02:58.719Z,93.33
2023-02-15T05:03:58.772Z,93.33
2023-02-15T05:04:58.738Z,93.23
2023-02-15T05:05:58.716Z,93.23
2023-02-15T05:06:58.706Z,93.12
2023-02-15T05:07:58.662Z,93.12
2023-02-15T05:08:58.655Z,93.12
2023-02-15T05:09:58.680Z,93.23
2023-02-15T05:10:58.643Z,93.23
2023-02-15T05:11:58.616Z,93.23
2023-02-15T05:12:58.593Z,93.33
2023-02-15T05:13:58.618Z,93.23
2023-02-15T05:14:58.575Z,93.23
2023-02-15T05:15:58.590Z,93.12
2023-02-15T05:16:58.562Z,93.01
2023-02-15T05:17:58.571Z,93.01
2023-02-15T05:18:58.534Z,92.80
2023-02-15T05:19:58.515Z,92.80
2023-02-15T05:20:58.497Z,92.91
2023-02-15T05:21:58.484Z,92.91
2023-02-15T05:22:58.501Z,93.01
2023-02-15T05:23:58.485Z,92.91
2023-02-15T05:24:58.459Z,93.01
2023-02-15T05:25:58.447Z,93.01
2023-02-15T05:26:58.425Z,93.12
2023-02-15T05:27:58.441Z,93.12
2023-02-15T05:28:58.407Z,93.23
2023-02-15T05:29:58.543Z,93.12
2023-02-15T05:30:58.727Z,93.01
2023-02-15T05:31:58.543Z,93.01
2023-02-15T05:32:58.340Z,93.01
2023-02-15T05:33:58.358Z,93.01
2023-02-15T05:34:58.319Z,93.12
2023-02-15T05:35:58.343Z,93.23
2023-02-15T05:36:58.296Z,93.23
2023-02-15T05:37:58.320Z,93.23
2023-02-15T05:38:58.334Z,93.12
2023-02-15T05:39:58.288Z,93.23
2023-02-15T05:40:58.236Z,93.12
2023-02-15T05:41:58.250Z,93.12
2023-02-15T05:42:58.224Z,93.12
2023-02-15T05:43:58.252Z,93.01
2023-02-15T05:44:58.232Z,93.01
2023-02-15T05:45:58.251Z,93.01
2023-02-15T05:46:58.175Z,93.12
2023-02-15T05:47:58.194Z,93.01
2023-02-15T05:48:58.168Z,93.01
2023-02-15T05:49:58.156Z,93.01
2023-02-15T05:50:58.118Z,92.91
2023-02-15T05:51:58.124Z,92.91
2023-02-15T05:52:58.131Z,92.80
2023-02-15T05:53:58.134Z,92.70
2023-02-15T05:54:58.101Z,92.80
2023-02-15T05:55:58.091Z,92.85
2023-02-15T05:56:58.044Z,92.91
2023-02-15T05:57:58.059Z,92.91
2023-02-15T05:58:58.041Z,93.01
2023-02-15T05:59:58.052Z,93.01
2023-02-15T06:00:57.992Z,93.12
2023-02-15T06:01:58.020Z,93.23
2023-02-15T06:02:57.964Z,93.12
2023-02-15T06:03:57.990Z,93.01
2023-02-15T06:04:57.962Z,93.01
2023-02-15T06:05:57.963Z,93.01
2023-02-15T06:06:57.939Z,93.01
2023-02-15T06:07:57.939Z,92.91
2023-02-15T06:08:57.891Z,92.95
2023-02-15T06:09:57.909Z,93.01
2023-02-15T06:10:57.923Z,92.91
2023-02-15T06:11:57.911Z,92.91
2023-02-15T06:12:57.870Z,92.91
2023-02-15T06:13:57.844Z,92.80
2023-02-15T06:14:57.846Z,92.80
2023-02-15T06:15:57.871Z,92.74
2023-02-15T06:16:57.818Z,92.74
2023-02-15T06:17:57.796Z,92.85
2023-02-15T06:18:57.776Z,92.95
2023-02-15T06:19:57.813Z,92.95
2023-02-15T06:20:57.763Z,92.95
2023-02-15T06:21:57.744Z,92.95
2023-02-15T06:22:57.719Z,93.05
2023-02-15T06:23:57.760Z,92.95
2023-02-15T06:24:57.713Z,92.95
2023-02-15T06:25:57.703Z,92.85
2023-02-15T06:26:57.715Z,92.85
2023-02-15T06:27:57.668Z,92.85
2023-02-15T06:28:57.636Z,92.85
2023-02-15T06:29:57.724Z,92.95
2023-02-15T06:30:58.102Z,92.95
2023-02-15T06:31:57.794Z,92.95
2023-02-15T06:32:57.578Z,93.05
2023-02-15T06:33:57.593Z,93.05
2023-02-15T06:34:57.564Z,93.16
2023-02-15T06:35:57.577Z,93.20
2023-02-15T06:36:57.559Z,93.27
2023-02-15T06:37:57.541Z,93.37
2023-02-15T06:38:57.544Z,93.37
2023-02-15T06:39:57.532Z,93.37
2023-02-15T06:40:57.489Z,93.41
2023-02-15T06:41:57.485Z,93.41
2023-02-15T06:42:57.460Z,93.48
2023-02-15T06:43:57.486Z,93.37
2023-02-15T06:44:57.438Z,93.37
2023-02-15T06:45:57.485Z,93.37
2023-02-15T06:46:57.433Z,93.27
2023-02-15T06:47:57.438Z,93.16
2023-02-15T06:48:57.374Z,93.16
2023-02-15T06:49:57.413Z,93.16
2023-02-15T06:50:57.361Z,93.16
2023-02-15T06:51:57.396Z,93.27
2023-02-15T06:52:57.364Z,93.20
2023-02-15T06:53:57.328Z,93.27
2023-02-15T06:54:57.353Z,93.27
2023-02-15T06:55:57.329Z,93.16
2023-02-15T06:56:57.308Z,93.16
2023-02-15T06:57:57.314Z,93.16
2023-02-15T06:58:57.261Z,93.05
2023-02-15T06:59:57.261Z,93.05
2023-02-15T07:00:57.249Z,93.05
2023-02-15T07:01:57.323Z,93.05
2023-02-15T07:02:57.223Z,93.05
2023-02-15T07:03:57.197Z,93.16
2023-02-15T07:04:57.281Z,93.05
2023-02-15T07:05:57.214Z,93.16
2023-02-15T07:06:57.184Z,93.05
2023-02-15T07:07:57.143Z,93.05
2023-02-15T07:08:57.115Z,92.99
2023-02-15T07:09:57.113Z,93.10
2023-02-15T07:10:57.129Z,93.16
2023-02-15T07:11:57.155Z,93.16
2023-02-15T07:12:57.079Z,93.27
2023-02-15T07:13:57.085Z,93.27
2023-02-15T07:14:57.076Z,93.27
2023-02-15T07:15:57.121Z,93.16
2023-02-15T07:16:57.020Z,93.16
2023-02-15T07:17:57.021Z,93.16
2023-02-15T07:18:57.026Z,93.05
2023-02-15T07:19:57.014Z,92.95
2023-02-15T07:20:56.974Z,92.85
2023-02-15T07:21:57.003Z,92.85
2023-02-15T07:22:56.971Z,92.85
2023-02-15T07:23:56.966Z,92.85
2023-02-15T07:24:56.915Z,92.74
2023-02-15T07:25:56.916Z,92.85
2023-02-15T07:26:56.948Z,92.74
2023-02-15T07:27:56.896Z,92.85
2023-02-15T07:28:56.907Z,92.95
2023-02-15T07:29:56.903Z,92.95
2023-02-15T07:30:56.884Z,92.95
2023-02-15T07:31:56.877Z,92.95
2023-02-15T07:32:56.832Z,92.95
2023-02-15T07:33:56.805Z,92.74
2023-02-15T07:34:56.802Z,92.54
2023-02-15T07:35:56.785Z,92.43
2023-02-15T07:36:56.772Z,92.43
2023-02-15T07:37:56.766Z,92.43
2023-02-15T07:38:56.744Z,92.43
2023-02-15T07:39:56.732Z,92.43
2023-02-15T07:40:56.720Z,92.29
2023-02-15T07:41:56.709Z,92.22
2023-02-15T07:42:56.734Z,92.22
2023-02-15T07:43:56.717Z,92.22
2023-02-15T07:44:56.697Z,91.97
2023-02-15T07:45:56.643Z,92.02
2023-02-15T07:46:56.644Z,91.97
2023-02-15T07:47:56.687Z,91.97
2023-02-15T07:48:56.613Z,91.97
2023-02-15T07:49:56.597Z,91.87
2023-02-15T07:50:56.638Z,91.97
2023-02-15T07:51:56.582Z,91.97
2023-02-15T07:52:56.629Z,91.87
2023-02-15T07:53:56.597Z,91.77
2023-02-15T07:54:56.550Z,91.66
2023-02-15T07:55:56.560Z,91.66
2023-02-15T07:56:56.580Z,91.56
2023-02-15T07:57:56.571Z,91.46
2023-02-15T07:58:56.557Z,91.46
2023-02-15T07:59:56.496Z,91.46
2023-02-15T08:00:56.492Z,91.41
2023-02-15T08:01:56.484Z,91.31
2023-02-15T08:02:56.539Z,91.20
2023-02-15T08:03:56.506Z,91.00
2023-02-15T08:04:56.469Z,90.89
2023-02-15T08:05:56.422Z,90.79
2023-02-15T08:06:56.399Z,90.79
2023-02-15T08:07:56.373Z,90.75
2023-02-15T08:08:56.393Z,90.64
2023-02-15T08:09:56.354Z,90.54
2023-02-15T08:10:56.374Z,90.44
2023-02-15T08:11:56.340Z,90.54
2023-02-15T08:12:56.363Z,90.44
2023-02-15T08:13:56.416Z,90.33
2023-02-15T08:14:56.342Z,90.33
2023-02-15T08:15:56.304Z,90.12
2023-02-15T08:16:56.330Z,89.87
2023-02-15T08:17:56.286Z,89.67
2023-02-15T08:18:56.273Z,89.46
2023-02-15T08:19:56.256Z,89.36
2023-02-15T08:20:56.242Z,89.25
2023-02-15T08:21:56.246Z,89.15
2023-02-15T08:22:56.239Z,89.04
2023-02-15T08:23:56.189Z,88.94
2023-02-15T08:24:56.198Z,88.73
2023-02-15T08:25:56.146Z,88.90
2023-02-15T08:26:56.191Z,88.90
2023-02-15T08:27:56.127Z,88.69
2023-02-15T08:28:56.186Z,88.59
2023-02-15T08:29:56.146Z,88.59
2023-02-15T08:30:56.182Z,88.69
2023-02-15T08:31:56.219Z,88.59
2023-02-15T08:32:56.078Z,88.44
2023-02-15T08:33:56.110Z,88.34
2023-02-15T08:34:56.100Z,88.13
2023-02-15T08:35:56.054Z,88.02
2023-02-15T08:36:56.061Z,87.92
2023-02-15T08:37:55.992Z,88.02
2023-02-15T08:38:56.008Z,87.88
2023-02-15T08:39:56.017Z,87.78
2023-02-15T08:40:56.003Z,87.26
2023-02-15T08:41:56.003Z,86.95
2023-02-15T08:42:55.998Z,86.54
2023-02-15T08:43:55.960Z,86.02
2023-02-15T08:44:55.962Z,86.02
2023-02-15T08:45:55.997Z,86.02
2023-02-15T08:46:55.942Z,85.97
2023-02-15T08:47:55.904Z,85.91
2023-02-15T08:48:55.921Z,85.97
2023-02-15T08:49:55.855Z,86.18
2023-02-15T08:50:55.883Z,86.29
2023-02-15T08:51:55.817Z,86.29
2023-02-15T08:52:55.823Z,86.18
2023-02-15T08:53:55.956Z,86.08
2023-02-15T08:54:55.874Z,86.08
2023-02-15T08:55:55.807Z,85.94
2023-02-15T08:56:55.806Z,85.94
2023-02-15T08:57:55.795Z,85.94
2023-02-15T08:58:55.792Z,85.94
2023-02-15T08:59:55.773Z,85.73
2023-02-15T09:00:55.756Z,85.73
2023-02-15T09:01:55.722Z,85.63
2023-02-15T09:02:55.717Z,85.63
2023-02-15T09:03:55.737Z,85.63
2023-02-15T09:04:55.705Z,85.27
2023-02-15T09:05:55.666Z,84.96
2023-02-15T09:06:55.677Z,84.75
2023-02-15T09:07:55.612Z,84.86
2023-02-15T09:08:55.708Z,84.65
2023-02-15T09:09:55.619Z,84.23
2023-02-15T09:10:55.626Z,84.34
2023-02-15T09:11:59.367Z,84.23
2023-02-15T09:12:55.596Z,84.13
2023-02-15T09:13:55.605Z,83.93
2023-02-15T09:14:55.598Z,83.72
2023-02-15T09:15:55.552Z,83.72
2023-02-15T09:16:55.639Z,83.72
2023-02-15T09:17:55.525Z,83.62
2023-02-15T09:18:55.552Z,83.72
2023-02-15T09:19:55.493Z,83.51
2023-02-15T09:20:55.469Z,83.51
2023-02-15T09:21:55.464Z,83.68
2023-02-15T09:22:58.123Z,83.58
2023-02-15T09:23:55.475Z,83.37
2023-02-15T09:24:55.462Z,83.26
2023-02-15T09:25:55.420Z,83.16
2023-02-15T09:26:55.394Z,83.06
2023-02-15T09:27:55.401Z,83.06
2023-02-15T09:28:55.411Z,82.95
2023-02-15T09:29:55.447Z,82.75
2023-02-15T09:30:55.360Z,82.75
2023-02-15T09:31:55.425Z,82.71
2023-02-15T09:32:55.360Z,82.81
2023-02-15T09:33:55.317Z,82.71
2023-02-15T09:34:55.344Z,82.71
2023-02-15T09:35:55.299Z,82.81
2023-02-15T09:36:55.288Z,82.81
2023-02-15T09:37:55.266Z,82.60
2023-02-15T09:38:55.241Z,82.40
2023-02-15T09:39:55.229Z,82.26
2023-02-15T09:40:55.218Z,81.95
2023-02-15T09:41:55.182Z,81.74
2023-02-15T09:42:55.221Z,81.64
2023-02-15T09:43:55.158Z,81.64
2023-02-15T09:44:55.191Z,81.43
2023-02-15T09:45:55.256Z,81.43
2023-02-15T09:46:55.151Z,81.43
2023-02-15T09:47:55.135Z,81.54
2023-02-15T09:48:55.108Z,81.49
2023-02-15T09:49:55.128Z,81.39
2023-02-15T09:50:55.102Z,81.19
2023-02-15T09:51:55.113Z,81.19
2023-02-15T09:52:55.110Z,81.19
2023-02-15T09:53:55.067Z,81.29
2023-02-15T09:54:55.060Z,81.19
2023-02-15T09:55:55.015Z,80.98
2023-02-15T09:56:55.045Z,80.77
2023-02-15T09:57:55.060Z,80.67
2023-02-15T09:58:55.020Z,80.67
2023-02-15T09:59:54.994Z,80.36
2023-02-15T10:00:55.013Z,80.15
2023-02-15T10:01:54.939Z,80.36
2023-02-15T10:02:54.955Z,80.57
2023-02-15T10:03:54.953Z,80.32
2023-02-15T10:04:55.081Z,80.11
2023-02-15T10:05:54.922Z,80.22
2023-02-15T10:06:54.904Z,80.22
2023-02-15T10:07:54.905Z,80.01
2023-02-15T10:08:54.910Z,79.91
2023-02-15T10:09:54.872Z,79.70
2023-02-15T10:10:54.842Z,79.70
2023-02-15T10:11:54.838Z,79.49
2023-02-15T10:12:54.857Z,79.49
2023-02-15T10:13:54.825Z,79.29
2023-02-15T10:14:54.835Z,79.15
2023-02-15T10:15:54.761Z,79.56
2023-02-15T10:16:54.808Z,79.46
2023-02-15T10:17:54.781Z,79.36
2023-02-15T10:18:54.756Z,79.46
2023-02-15T10:19:54.723Z,79.15
2023-02-15T10:20:54.733Z,79.15
2023-02-15T10:21:54.700Z,79.25
2023-02-15T10:22:54.731Z,79.15
2023-02-15T10:23:54.689Z,79.32
2023-02-15T10:24:54.732Z,78.91
2023-02-15T10:25:54.633Z,78.70
2023-02-15T10:26:54.648Z,78.59
2023-02-15T10:27:54.613Z,78.28
2023-02-15T10:28:54.603Z,78.18
2023-02-15T10:29:54.647Z,78.18
2023-02-15T10:30:54.625Z,78.25
2023-02-15T10:31:54.654Z,78.45
2023-02-15T10:32:54.541Z,78.45
2023-02-15T10:33:54.586Z,78.56
2023-02-15T10:34:54.577Z,78.45
2023-02-15T10:35:54.566Z,78.35
2023-02-15T10:36:54.543Z,78.05
2023-02-15T10:37:54.573Z,78.01
2023-02-15T10:38:54.507Z,77.59
2023-02-15T10:39:54.496Z,76.87
2023-02-15T10:40:54.529Z,77.28
2023-02-15T10:41:54.467Z,76.87
2023-02-15T10:42:54.418Z,76.67
2023-02-15T10:43:54.457Z,77.28
2023-02-15T10:44:54.390Z,77.39
2023-02-15T10:45:54.406Z,77.59
2023-02-15T10:46:54.370Z,77.39
2023-02-15T10:47:54.366Z,77.59
2023-02-15T10:48:54.385Z,77.66
2023-02-15T10:49:54.378Z,77.35
2023-02-15T10:50:54.324Z,76.73
2023-02-15T10:51:54.315Z,76.73
2023-02-15T10:52:54.347Z,76.73
2023-02-15T10:53:54.317Z,76.63
2023-02-15T10:54:54.299Z,76.42
2023-02-15T10:55:54.253Z,76.42
2023-02-15T10:56:54.252Z,76.42
2023-02-15T10:57:54.281Z,76.42
2023-02-15T10:58:54.207Z,76.08
2023-02-15T10:59:54.283Z,76.18
2023-02-15T11:00:54.193Z,75.98
2023-02-15T11:01:54.362Z,75.98
2023-02-15T11:02:54.187Z,75.98
2023-02-15T11:03:54.217Z,75.77
2023-02-15T11:04:54.329Z,75.77
2023-02-15T11:05:54.152Z,75.73
2023-02-15T11:06:54.133Z,75.73
2023-02-15T11:07:54.103Z,75.84
2023-02-15T11:08:54.079Z,75.43
2023-02-15T11:09:54.103Z,75.32
2023-02-15T11:10:54.113Z,74.91
2023-02-15T11:11:54.078Z,75.22
2023-02-15T11:12:54.112Z,75.22
2023-02-15T11:13:54.066Z,75.32
2023-02-15T11:14:54.012Z,75.22
2023-02-15T11:15:54.202Z,75.12
2023-02-15T11:16:54.038Z,74.91
2023-02-15T11:17:54.024Z,74.46
2023-02-15T11:18:54.010Z,74.46
2023-02-15T11:19:54.007Z,74.05
2023-02-15T11:20:54.022Z,74.26
2023-02-15T11:21:53.964Z,74.67
2023-02-15T11:22:53.888Z,74.46
2023-02-15T11:23:53.965Z,74.67
2023-02-15T11:24:53.905Z,74.46
2023-02-15T11:25:53.935Z,74.26
2023-02-15T11:26:53.863Z,74.36
2023-02-15T11:27:53.882Z,74.53
2023-02-15T11:28:53.845Z,74.53
2023-02-15T11:29:53.847Z,74.53
2023-02-15T11:30:53.871Z,74.12
2023-02-15T11:31:53.952Z,73.81
2023-02-15T11:32:53.817Z,73.88
2023-02-15T11:33:53.795Z,73.26
2023-02-15T11:34:53.839Z,73.57
2023-02-15T11:35:53.749Z,73.57
2023-02-15T11:36:53.748Z,73.57
2023-02-15T11:37:53.876Z,73.47
2023-02-15T11:38:53.700Z,73.36
2023-02-15T11:39:53.741Z,73.47
2023-02-15T11:40:53.739Z,73.16
2023-02-15T11:41:53.710Z,73.36
2023-02-15T11:42:53.645Z,73.57
2023-02-15T11:43:53.684Z,73.47
2023-02-15T11:44:53.700Z,73.36
2023-02-15T11:45:53.680Z,73.68
2023-02-15T11:46:53.620Z,73.57
2023-02-15T11:47:53.605Z,73.78
2023-02-15T11:48:53.642Z,73.36
2023-02-15T11:49:53.611Z,73.36
2023-02-15T11:50:53.587Z,73.54
2023-02-15T11:51:53.576Z,73.44
2023-02-15T11:52:53.539Z,73.13
2023-02-15T11:53:53.597Z,73.13
2023-02-15T11:54:53.521Z,72.92
2023-02-15T11:55:53.540Z,72.81
2023-02-15T11:56:53.510Z,72.99
2023-02-15T11:57:53.451Z,72.99
2023-02-15T11:58:53.460Z,72.99
2023-02-15T11:59:53.535Z,73.09
2023-02-15T12:00:53.415Z,72.89
2023-02-15T12:01:53.446Z,72.68
2023-02-15T12:02:53.484Z,72.47
2023-02-15T12:03:53.493Z,71.96
2023-02-15T12:04:53.394Z,72.06
2023-02-15T12:05:53.362Z,71.75
2023-02-15T12:06:53.375Z,71.75
2023-02-15T12:07:53.336Z,71.86
2023-02-15T12:08:53.326Z,72.03
2023-02-15T12:09:53.324Z,72.24
2023-02-15T12:10:53.301Z,71.51
2023-02-15T12:11:53.400Z,71.72
2023-02-15T12:12:53.267Z,71.51
2023-02-15T12:13:53.273Z,71.62
2023-02-15T12:14:53.256Z,71.62
2023-02-15T12:15:53.259Z,72.03
2023-02-15T12:16:53.257Z,72.13
2023-02-15T12:17:53.226Z,72.34
2023-02-15T12:18:53.185Z,72.34
2023-02-15T12:19:53.185Z,72.34
2023-02-15T12:20:53.152Z,72.75
2023-02-15T12:21:53.174Z,72.75
2023-02-15T12:22:53.113Z,71.89
2023-02-15T12:23:53.138Z,71.59
2023-02-15T12:24:53.095Z,71.59
2023-02-15T12:25:53.128Z,71.38
2023-02-15T12:26:53.098Z,71.69
2023-02-15T12:27:53.086Z,71.69
2023-02-15T12:28:53.079Z,71.38
2023-02-15T12:29:53.152Z,71.69
2023-02-15T12:30:53.058Z,71.69
2023-02-15T12:31:53.182Z,72.20
2023-02-15T12:32:53.045Z,71.89
2023-02-15T12:33:53.032Z,72.41
2023-02-15T12:34:52.991Z,72.31
2023-02-15T12:35:52.964Z,72.41
2023-02-15T12:36:52.963Z,72.20
2023-02-15T12:37:52.977Z,72.51
2023-02-15T12:38:59.431Z,72.92
2023-02-15T12:39:53.922Z,73.13
2023-02-15T12:40:52.903Z,72.82
2023-02-15T12:41:52.921Z,72.58
2023-02-15T12:42:52.887Z,72.06
2023-02-15T12:43:52.871Z,71.86
2023-02-15T12:44:52.842Z,71.55
2023-02-15T12:45:52.865Z,71.45
2023-02-15T12:46:52.893Z,71.04
2023-02-15T12:47:52.885Z,70.94
2023-02-15T12:48:52.817Z,70.63
2023-02-15T12:49:52.821Z,70.84
2023-02-15T12:50:55.795Z,71.04
2023-02-15T12:51:52.796Z,71.14